Soldotna, AK (99669)

3:01 PM AKDT on July 29, 2016 (GMT -0800)
| | Change Station

Elev -9999 ft 0.00 °N, 0.00 °E | Updated

Partly Cloudy
Partly Cloudy
67 °F
Feels Like 67 °F
N
17
Wind Variable Wind from SSW
Gusts 22 mph

Today
High -- | Low -- °F
--% Chance of Precip.
Yesterday
High -- | Low -- °F
Precip. -- in
Pressure 30.09 in
Visibility 10.0 miles
Clouds Clear
Dew Point 49 °F
Humidity 52%
Rainfall --
Snow Depth Not available.
5:36 AM 10:43 PM
Waning Crescent, 18% visible
METAR PAEN 292253Z 20026G34KT 10SM CLR 18/11 A3009 RMK AO2 PK WND 20034/2245 SLP189 T01830111
Pressure 30.09 in
Visibility 10.0 miles
Clouds Clear
Dew Point 49 °F
Humidity 52%
Rainfall --
Snow Depth Not available.
5:36 AM 10:43 PM
Waning Crescent, 18% visible
METAR PAEN 292253Z 20026G34KT 10SM CLR 18/11 A3009 RMK AO2 PK WND 20034/2245 SLP189 T01830111

10-Day Weather Forecast

Almanac

Astronomy

Jul. 29, 2016 Rise Set
Actual Time
Civil Twilight
Nautical Twilight
Astronomical Twilight
Moon
Length of Visible Light
Length of Day
Tomorrow will be .
, % of the Moon is Illuminated

Today's Extremes

State Highs State Lows

Community

WunderPhotos

Upload Photos

1,928,437 photos uploaded!

WunderBlog® & News

Nearby

Air Quality

  Air Quality AQ Index Pollutant
Not available.

Snow Depth

Station Depth Elevation

Earthquake Activity

City Distance Mag. Time & Date
Minimum magnitude displayed is 2.5.

Coastal Water Temperatures

Place Temperature

Stations

Nearby Weather Stations

Station Location Temp. Windchill Dew Point Humidity Wind Precip. Elev Updated Type
                   

Watches & Warnings

There are currently no watches in effect.